TAF Flughafenprognosen

Nürnberg TAF, ausgegeben Di 05.12. 06:00

TAF EDDN 050500Z 0506/0606 14008KT 9999 BKN030 PROB30 TEMPO 0506/0507 -FZRA BKN008 TEMPO 0521/0606 3000 -SNRA BKN007 BECMG 0603/0605 20005KT
GültigkeitVonBisWind in Beaufort
(Knoten)
Wolken
(Meter über Grund)
Sichtweite
(Meter)
Wettererscheinung
Grundvorhersage Di 05.12. 07:00 Mi 06.12. 07:00 SO 3 (8) Stark bewölkt (910) >= 10000  
Vorübergehend
(Wahrscheinlichkeit 30 %)
Di 05.12. 07:00 Di 05.12. 08:00   Stark bewölkt (240)   Regen (gefrierend, schwach)
Vorübergehend Di 05.12. 22:00 Mi 06.12. 07:00   Stark bewölkt (210) 3000 Schnee/Regen (schwach)
Übergang zu Mi 06.12. 04:00 Mi 06.12. 06:00 SSW 2 (5)      

 

Hof TAF, ausgegeben Di 05.12. 10:34

TAF AMD EDQM 050934Z 0509/0518 14005KT 8000 BKN009 BKN015 TEMPO 0509/0512 -FZRA PROB30 TEMPO 0509/0512 SCT009 BKN015 TEMPO 0513/0518 4000 -SN BR
GültigkeitVonBisWind in Beaufort
(Knoten)
Wolken
(Meter über Grund)
Sichtweite
(Meter)
Wettererscheinung
Grundvorhersage Di 05.12. 10:00 Di 05.12. 19:00 SO 2 (5) Stark bewölkt (460)
Stark bewölkt (270)
8000  
Vorübergehend Di 05.12. 10:00 Di 05.12. 13:00       Regen (gefrierend, schwach)
Vorübergehend
(Wahrscheinlichkeit 30 %)
Di 05.12. 10:00 Di 05.12. 13:00   Stark bewölkt (460)
Wolkig (270)
   
Vorübergehend Di 05.12. 14:00 Di 05.12. 19:00     4000 Schneefall (schwach)
Nebeldunst

 

Erfurt-Bindersleben TAF, ausgegeben Di 05.12. 06:00

TAF EDDE 050500Z 0506/0606 17008KT 9999 SCT030 BKN045 TEMPO 0506/0508 4500 -RASN PROB30 TEMPO 0506/0507 -FZRA PROB30 TEMPO 0518/0520 4000 -SNRA TEMPO 0520/0524 2500 -SN BKN011 BECMG 0601/0603 23007KT
GültigkeitVonBisWind in Beaufort
(Knoten)
Wolken
(Meter über Grund)
Sichtweite
(Meter)
Wettererscheinung
Grundvorhersage Di 05.12. 07:00 Mi 06.12. 07:00 S 3 (8) Stark bewölkt (1400)
Wolkig (910)
>= 10000  
Vorübergehend Di 05.12. 07:00 Di 05.12. 09:00     4500 Regen/Schneefall (schwach)
Vorübergehend
(Wahrscheinlichkeit 30 %)
Di 05.12. 07:00 Di 05.12. 08:00       Regen (gefrierend, schwach)
Vorübergehend
(Wahrscheinlichkeit 30 %)
Di 05.12. 19:00 Di 05.12. 21:00     4000 Schnee/Regen (schwach)
Vorübergehend Di 05.12. 21:00 Mi 06.12. 01:00   Stark bewölkt (340) 2500 Schneefall (schwach)
Übergang zu Mi 06.12. 02:00 Mi 06.12. 04:00 SW 3 (7)      

 

Augsburg TAF, ausgegeben Di 05.12. 09:00

TAF EDMA 050800Z 0509/0518 14005KT 8000 NSC BECMG 0509/0511 23007KT
GültigkeitVonBisWind in Beaufort
(Knoten)
Wolken
(Meter über Grund)
Sichtweite
(Meter)
Wettererscheinung
Grundvorhersage Di 05.12. 10:00 Di 05.12. 19:00 SO 2 (5) Nicht signifikant 8000  
Übergang zu Di 05.12. 10:00 Di 05.12. 12:00 SW 3 (7)      

 

Frankfurt TAF, ausgegeben Di 05.12. 06:00

TAF EDDF 050500Z 0506/0612 06006KT 9999 BKN015 TEMPO 0506/0509 3000 RA BR BKN009 BECMG 0506/0508 16005KT BECMG 0510/0513 19010KT BKN012 TEMPO 0513/0520 4000 RA BKN009 BECMG 0522/0524 20005KT
GültigkeitVonBisWind in Beaufort
(Knoten)
Wolken
(Meter über Grund)
Sichtweite
(Meter)
Wettererscheinung
Grundvorhersage Di 05.12. 07:00 Mi 06.12. 13:00 ONO 2 (6) Stark bewölkt (460) >= 10000  
Vorübergehend Di 05.12. 07:00 Di 05.12. 10:00   Stark bewölkt (270) 3000 Regen
Nebeldunst
Übergang zu Di 05.12. 07:00 Di 05.12. 09:00 SSO 2 (5)      
Übergang zu Di 05.12. 11:00 Di 05.12. 14:00 S 3 (10) Stark bewölkt (370)    
Vorübergehend Di 05.12. 14:00 Di 05.12. 21:00   Stark bewölkt (270) 4000 Regen
Übergang zu Di 05.12. 23:00 Mi 06.12. 01:00 SSW 2 (5)      

 

Stuttgart TAF, ausgegeben Di 05.12. 06:00

TAF EDDS 050500Z 0506/0606 VRB03KT 9999 BKN035 BECMG 0506/0508 19006KT
GültigkeitVonBisWind in Beaufort
(Knoten)
Wolken
(Meter über Grund)
Sichtweite
(Meter)
Wettererscheinung
Grundvorhersage Di 05.12. 07:00 Mi 06.12. 07:00 Uml 2 (3) Stark bewölkt (1100) >= 10000  
Übergang zu Di 05.12. 07:00 Di 05.12. 09:00 S 2 (6)      

 

München TAF, ausgegeben Di 05.12. 07:46

TAF AMD EDDM 050646Z 0506/0612 VRB03KT 8000 SCT030 PROB30 TEMPO 0507/0509 3000 -FZRA BR PROB30 TEMPO 0602/0609 4500 -RASN
GültigkeitVonBisWind in Beaufort
(Knoten)
Wolken
(Meter über Grund)
Sichtweite
(Meter)
Wettererscheinung
Grundvorhersage Di 05.12. 07:00 Mi 06.12. 13:00 Uml 2 (3) Wolkig (910) 8000  
Vorübergehend
(Wahrscheinlichkeit 30 %)
Di 05.12. 08:00 Di 05.12. 10:00     3000 Regen (gefrierend, schwach)
Nebeldunst
Vorübergehend
(Wahrscheinlichkeit 30 %)
Mi 06.12. 03:00 Mi 06.12. 10:00     4500 Regen/Schneefall (schwach)